createdAt,value
2019-02-04T00:02:12.192Z,0.80
2019-02-04T00:04:42.564Z,0.80
2019-02-04T00:07:13.342Z,0.80
2019-02-04T00:09:43.819Z,0.80
2019-02-04T00:12:14.151Z,0.80
2019-02-04T00:14:44.522Z,0.80
2019-02-04T00:17:14.932Z,0.70
2019-02-04T00:19:45.309Z,0.70
2019-02-04T00:22:15.919Z,0.70
2019-02-04T00:24:46.341Z,0.80
2019-02-04T00:27:16.767Z,0.70
2019-02-04T00:29:47.235Z,0.80
2019-02-04T00:32:17.648Z,0.80
2019-02-04T00:37:18.179Z,0.80
2019-02-04T00:39:48.619Z,0.80
2019-02-04T00:42:19.035Z,0.80
2019-02-04T00:44:49.479Z,0.80
2019-02-04T00:47:19.899Z,0.80
2019-02-04T00:49:50.321Z,0.80
2019-02-04T00:52:20.752Z,0.90
2019-02-04T00:54:51.173Z,0.80
2019-02-04T00:57:21.617Z,0.80
2019-02-04T00:59:52.028Z,0.80
2019-02-04T01:02:22.780Z,0.80
2019-02-04T01:04:53.201Z,0.80
2019-02-04T01:07:23.652Z,0.80
2019-02-04T01:09:54.063Z,0.80
2019-02-04T01:12:24.515Z,0.80
2019-02-04T01:14:55.240Z,0.80
2019-02-04T01:17:25.667Z,0.80
2019-02-04T01:19:56.118Z,0.90
2019-02-04T01:22:26.528Z,0.90
2019-02-04T01:24:56.943Z,0.80
2019-02-04T01:27:27.559Z,0.80
2019-02-04T01:29:57.896Z,0.80
2019-02-04T01:32:28.652Z,0.80
2019-02-04T01:34:59.009Z,0.70
2019-02-04T01:37:29.427Z,0.80
2019-02-04T01:39:59.832Z,0.70
2019-02-04T01:42:30.187Z,0.80
2019-02-04T01:45:00.587Z,0.80
2019-02-04T01:47:31.029Z,0.80
2019-02-04T01:50:01.465Z,0.80
2019-02-04T01:52:31.898Z,0.80
2019-02-04T01:55:02.307Z,0.80
2019-02-04T01:57:32.799Z,0.80
2019-02-04T02:00:03.135Z,0.80
2019-02-04T02:02:33.871Z,0.80
2019-02-04T02:05:04.608Z,0.80
2019-02-04T02:07:35.383Z,0.80
2019-02-04T02:10:06.784Z,0.80
2019-02-04T02:15:07.125Z,0.80
2019-02-04T02:20:08.231Z,0.90
2019-02-04T02:22:38.621Z,0.90
2019-02-04T02:25:09.107Z,0.80
2019-02-04T02:27:39.515Z,0.90
2019-02-04T02:30:13.691Z,0.80
2019-02-04T02:32:44.287Z,0.80
2019-02-04T02:35:14.727Z,0.80
2019-02-04T02:37:45.139Z,0.90
2019-02-04T02:40:19.278Z,0.80
2019-02-04T02:42:49.700Z,0.90
2019-02-04T02:45:20.399Z,0.80
2019-02-04T02:47:51.912Z,0.80
2019-02-04T02:50:22.411Z,0.80
2019-02-04T02:52:52.897Z,0.80
2019-02-04T02:55:23.253Z,0.80
2019-02-04T02:57:53.913Z,0.80
2019-02-04T03:00:27.007Z,0.80
2019-02-04T03:02:57.414Z,0.80
2019-02-04T03:05:27.827Z,0.80
2019-02-04T03:07:58.229Z,0.80
2019-02-04T03:10:31.370Z,0.80
2019-02-04T03:13:01.980Z,0.80
2019-02-04T03:15:32.379Z,0.70
2019-02-04T03:18:02.809Z,0.80
2019-02-04T03:20:33.208Z,0.80
2019-02-04T03:23:03.639Z,0.80
2019-02-04T03:25:33.972Z,0.80
2019-02-04T03:28:04.416Z,0.80
2019-02-04T03:30:35.791Z,0.80
2019-02-04T03:33:06.250Z,0.70
2019-02-04T03:35:36.640Z,0.70
2019-02-04T03:38:07.076Z,0.80
2019-02-04T03:40:37.475Z,0.80
2019-02-04T03:43:07.925Z,0.80
2019-02-04T03:48:09.582Z,0.70
2019-02-04T03:50:40.221Z,0.70
2019-02-04T03:53:10.631Z,0.70
2019-02-04T03:55:40.959Z,0.70
2019-02-04T03:58:11.375Z,0.70
2019-02-04T04:00:41.792Z,0.70
2019-02-04T04:03:12.583Z,0.70
2019-02-04T04:05:42.968Z,0.70
2019-02-04T04:08:13.372Z,0.70
2019-02-04T04:10:43.856Z,0.60
2019-02-04T04:13:14.256Z,0.70
2019-02-04T04:15:46.237Z,0.70
2019-02-04T04:18:16.681Z,0.70
2019-02-04T04:20:47.088Z,0.70
2019-02-04T04:23:17.531Z,0.70
2019-02-04T04:25:47.932Z,0.70
2019-02-04T04:28:18.340Z,0.60
2019-02-04T04:30:48.755Z,0.70
2019-02-04T04:33:19.163Z,0.60
2019-02-04T04:35:49.646Z,0.60
2019-02-04T04:38:19.983Z,0.60
2019-02-04T04:40:50.418Z,0.60
2019-02-04T04:43:20.812Z,0.50
2019-02-04T04:45:51.227Z,0.50
2019-02-04T04:48:26.755Z,0.50
2019-02-04T04:53:23.299Z,0.40
2019-02-04T04:55:54.988Z,0.40
2019-02-04T04:58:25.419Z,0.30
2019-02-04T05:00:55.826Z,0.40
2019-02-04T05:03:26.307Z,0.40
2019-02-04T05:05:56.776Z,0.40
2019-02-04T05:08:27.583Z,0.40
2019-02-04T05:10:59.029Z,0.40
2019-02-04T05:13:29.453Z,0.50
2019-02-04T05:15:59.895Z,0.50
2019-02-04T05:18:37.779Z,0.50
2019-02-04T05:21:02.351Z,0.50
2019-02-04T05:23:32.763Z,0.50
2019-02-04T05:26:03.175Z,0.60
2019-02-04T05:28:33.561Z,0.60
2019-02-04T05:31:04.004Z,0.60
2019-02-04T05:33:34.444Z,0.70
2019-02-04T05:36:04.955Z,0.70
2019-02-04T05:38:35.401Z,0.70
2019-02-04T05:41:05.815Z,0.70
2019-02-04T05:43:36.268Z,0.70
2019-02-04T05:46:06.677Z,0.70
2019-02-04T05:48:37.119Z,0.70
2019-02-04T05:51:07.522Z,0.70
2019-02-04T05:53:37.936Z,0.80
2019-02-04T05:56:08.349Z,0.80
2019-02-04T05:58:38.755Z,0.80
2019-02-04T06:01:09.396Z,0.70
2019-02-04T06:06:09.487Z,0.70
2019-02-04T06:08:40.095Z,0.70
2019-02-04T06:16:09.876Z,0.70
2019-02-04T06:21:10.007Z,0.70
2019-02-04T06:26:10.162Z,0.70
2019-02-04T06:28:40.996Z,0.70
2019-02-04T06:31:11.453Z,0.70
2019-02-04T06:33:41.872Z,0.60
2019-02-04T06:38:42.117Z,0.60
2019-02-04T06:41:12.935Z,0.60
2019-02-04T06:43:43.751Z,0.70
2019-02-04T06:46:14.192Z,0.70
2019-02-04T06:48:44.676Z,0.70
2019-02-04T06:51:15.107Z,0.70
2019-02-04T06:53:45.863Z,0.80
2019-02-04T06:58:45.888Z,0.80
2019-02-04T07:01:16.224Z,0.80
2019-02-04T07:03:46.588Z,0.80
2019-02-04T07:06:17.026Z,0.80
2019-02-04T07:08:47.800Z,0.80
2019-02-04T07:11:18.237Z,0.80
2019-02-04T07:13:48.711Z,0.70
2019-02-04T07:16:19.056Z,0.80
2019-02-04T07:18:49.524Z,0.80
2019-02-04T07:21:21.011Z,0.80
2019-02-04T07:23:51.755Z,0.90
2019-02-04T07:26:22.204Z,1.00
2019-02-04T07:36:21.992Z,1.20
2019-02-04T07:43:53.222Z,1.20
2019-02-04T07:46:25.065Z,1.30
2019-02-04T07:48:56.796Z,1.30
2019-02-04T07:51:27.227Z,1.40
2019-02-04T07:53:57.689Z,1.20
2019-02-04T08:01:27.554Z,1.00
2019-02-04T08:03:58.021Z,1.10
2019-02-04T08:06:28.480Z,1.20
2019-02-04T08:11:28.571Z,1.40
2019-02-04T08:16:29.468Z,1.40
2019-02-04T08:19:00.120Z,1.40
2019-02-04T08:21:30.524Z,1.50
2019-02-04T08:24:00.989Z,1.60
2019-02-04T08:26:31.463Z,1.60
2019-02-04T08:29:03.109Z,1.70
2019-02-04T08:36:43.430Z,1.80
2019-02-04T08:39:08.129Z,1.80
2019-02-04T08:41:38.556Z,1.80
2019-02-04T08:44:09.032Z,1.80
2019-02-04T08:46:39.504Z,1.90
2019-02-04T08:49:10.048Z,1.90
2019-02-04T08:51:40.464Z,2.10
2019-02-04T08:54:11.500Z,2.00
2019-02-04T08:56:43.346Z,2.00
2019-02-04T09:01:43.621Z,2.10
2019-02-04T09:04:14.112Z,2.00
2019-02-04T09:06:44.560Z,2.10
2019-02-04T09:09:15.991Z,2.10
2019-02-04T09:11:46.912Z,2.10
2019-02-04T09:14:17.376Z,2.20
2019-02-04T09:16:47.848Z,2.30
2019-02-04T09:19:18.608Z,2.20
2019-02-04T09:21:49.095Z,2.20
2019-02-04T09:24:19.532Z,2.30
2019-02-04T09:26:49.975Z,2.40
2019-02-04T09:29:20.407Z,2.50
2019-02-04T09:31:50.828Z,2.50
2019-02-04T09:34:21.570Z,2.60
2019-02-04T09:36:53.139Z,2.50
2019-02-04T09:39:23.716Z,2.50
2019-02-04T09:44:28.884Z,2.80
2019-02-04T09:46:59.304Z,3.10
2019-02-04T09:49:29.773Z,3.20
2019-02-04T09:52:00.760Z,3.00
2019-02-04T09:54:31.197Z,2.90
2019-02-04T09:59:31.376Z,3.10
2019-02-04T10:04:31.503Z,3.00
2019-02-04T10:09:33.948Z,4.90
2019-02-04T10:12:04.518Z,5.30
2019-02-04T10:17:05.724Z,7.40
2019-02-04T10:19:38.086Z,7.00
2019-02-04T10:22:08.638Z,7.80
2019-02-04T10:24:39.123Z,8.50
2019-02-04T10:29:39.324Z,9.40
2019-02-04T10:32:10.404Z,8.00
2019-02-04T10:34:40.921Z,7.00
2019-02-04T10:39:41.395Z,6.10
2019-02-04T10:42:12.964Z,5.30
2019-02-04T10:44:44.112Z,4.90
2019-02-04T10:47:15.032Z,4.50
2019-02-04T10:57:16.835Z,4.30
2019-02-04T10:59:47.505Z,4.50
2019-02-04T11:04:50.274Z,3.80
2019-02-04T11:07:20.687Z,4.10
2019-02-04T11:09:51.132Z,4.40
2019-02-04T11:12:21.703Z,4.40
2019-02-04T11:14:53.712Z,4.50
2019-02-04T11:17:24.225Z,4.50
2019-02-04T11:19:54.840Z,4.20
2019-02-04T11:37:24.484Z,6.00
2019-02-04T11:42:24.736Z,5.20
2019-02-04T11:44:55.163Z,5.90
2019-02-04T11:47:25.596Z,5.60
2019-02-04T11:49:55.999Z,6.90
2019-02-04T11:52:26.655Z,7.20
2019-02-04T11:54:57.089Z,6.70
2019-02-04T11:57:27.475Z,6.70
2019-02-04T11:59:57.923Z,6.80
2019-02-04T12:02:34.597Z,6.50
2019-02-04T12:05:00.447Z,5.90
2019-02-04T12:07:30.849Z,5.60
2019-02-04T12:10:01.313Z,5.20
2019-02-04T12:12:31.762Z,4.80
2019-02-04T12:15:02.411Z,4.50
2019-02-04T12:17:32.932Z,4.40
2019-02-04T12:20:05.911Z,4.50
2019-02-04T12:27:36.552Z,4.10
2019-02-04T12:30:20.635Z,3.70
2019-02-04T12:32:51.700Z,3.30
2019-02-04T12:38:11.517Z,3.00
2019-02-04T12:40:42.275Z,3.40
2019-02-04T12:43:12.973Z,3.90
2019-02-04T12:45:44.428Z,4.10
2019-02-04T12:50:44.835Z,3.60
2019-02-04T12:55:48.935Z,3.30
2019-02-04T12:58:19.383Z,3.10
2019-02-04T13:00:49.811Z,3.10
2019-02-04T13:03:20.151Z,3.00
2019-02-04T13:05:53.208Z,2.90
2019-02-04T13:08:23.615Z,2.70
2019-02-04T13:10:55.760Z,2.70
2019-02-04T13:15:55.932Z,2.60
2019-02-04T13:18:26.682Z,2.50
2019-02-04T13:21:01.128Z,2.30
2019-02-04T13:23:31.584Z,2.20
2019-02-04T13:26:02.032Z,2.10
2019-02-04T13:28:32.571Z,2.10
2019-02-04T13:31:03.323Z,2.10
2019-02-04T13:33:33.808Z,2.10
2019-02-04T13:36:04.941Z,2.10
2019-02-04T13:38:35.428Z,2.10
2019-02-04T13:41:08.055Z,2.20
2019-02-04T13:43:38.299Z,2.00
2019-02-04T13:46:08.796Z,2.00
2019-02-04T13:48:39.382Z,1.90
2019-02-04T13:51:09.852Z,1.90
2019-02-04T13:53:40.348Z,1.90
2019-02-04T13:56:11.084Z,1.90
2019-02-04T13:58:41.521Z,1.80
2019-02-04T14:03:41.764Z,1.70
2019-02-04T14:06:12.228Z,1.80
2019-02-04T14:08:42.774Z,1.70
2019-02-04T14:11:13.236Z,1.80
2019-02-04T14:13:43.679Z,2.00
2019-02-04T14:16:15.081Z,1.90
2019-02-04T14:18:46.971Z,1.90
2019-02-04T14:21:17.428Z,1.80
2019-02-04T14:23:47.856Z,1.70
2019-02-04T14:26:18.696Z,1.60
2019-02-04T14:28:49.168Z,1.60
2019-02-04T14:31:19.564Z,1.60
2019-02-04T14:33:50.354Z,1.60
2019-02-04T14:36:20.767Z,1.50
2019-02-04T14:38:51.243Z,1.50
2019-02-04T14:44:06.776Z,1.40
2019-02-04T14:47:11.244Z,1.30
2019-02-04T14:50:28.603Z,1.20
2019-02-04T14:56:28.536Z,1.00
2019-02-04T14:59:10.112Z,0.90
2019-02-04T15:02:12.491Z,0.90
2019-02-04T15:04:59.019Z,0.90
2019-02-04T15:10:51.056Z,0.80
2019-02-04T15:13:56.035Z,0.80
2019-02-04T15:16:40.551Z,0.80
2019-02-04T15:19:43.192Z,0.80
2019-02-04T15:22:55.595Z,0.80
2019-02-04T15:26:05.852Z,0.80
2019-02-04T15:29:10.544Z,0.80
2019-02-04T15:32:18.115Z,0.70
2019-02-04T15:37:45.819Z,0.70
2019-02-04T15:40:38.913Z,0.70
2019-02-04T15:43:46.175Z,0.70
2019-02-04T15:46:54.212Z,0.70
2019-02-04T15:50:01.380Z,0.70
2019-02-04T15:52:31.916Z,0.70
2019-02-04T15:57:33.552Z,0.60
2019-02-04T16:00:04.795Z,0.70
2019-02-04T16:05:05.614Z,0.60
2019-02-04T16:07:36.172Z,0.60
2019-02-04T16:10:09.363Z,0.60
2019-02-04T16:12:41.349Z,0.60
2019-02-04T16:17:42.446Z,0.60
2019-02-04T16:22:44.622Z,0.50
2019-02-04T16:25:15.736Z,0.60
2019-02-04T16:27:46.301Z,0.60
2019-02-04T16:30:19.061Z,0.60
2019-02-04T16:35:20.131Z,0.60
2019-02-04T16:37:51.276Z,0.50
2019-02-04T16:40:22.661Z,0.40
2019-02-04T16:42:53.236Z,0.50
2019-02-04T16:45:24.004Z,0.40
2019-02-04T16:47:54.741Z,0.40
2019-02-04T16:52:56.673Z,0.40
2019-02-04T16:55:27.344Z,0.40
2019-02-04T16:57:58.726Z,0.40
2019-02-04T17:00:31.187Z,0.40
2019-02-04T17:03:01.744Z,0.40
2019-02-04T17:05:32.289Z,0.40
2019-02-04T17:08:02.895Z,0.40
2019-02-04T17:10:33.248Z,0.40
2019-02-04T17:13:04.366Z,0.40
2019-02-04T17:15:35.136Z,0.50
2019-02-04T17:18:05.807Z,0.40
2019-02-04T17:20:36.844Z,0.40
2019-02-04T17:23:07.574Z,0.40
2019-02-04T17:25:38.093Z,0.40
2019-02-04T17:28:09.151Z,0.40
2019-02-04T17:30:39.563Z,0.40
2019-02-04T17:33:10.114Z,0.40
2019-02-04T17:35:40.591Z,0.40
2019-02-04T17:38:11.079Z,0.40
2019-02-04T17:40:41.898Z,0.40
2019-02-04T17:43:12.456Z,0.40
2019-02-04T17:48:13.023Z,0.50
2019-02-04T17:50:43.865Z,0.50
2019-02-04T17:53:14.280Z,0.50
2019-02-04T17:55:44.719Z,0.60
2019-02-04T18:00:49.783Z,0.60
2019-02-04T18:03:20.299Z,0.60
2019-02-04T18:08:20.835Z,0.60
2019-02-04T18:10:51.293Z,0.70
2019-02-04T18:13:21.703Z,0.70
2019-02-04T18:18:22.903Z,0.70
2019-02-04T18:20:53.639Z,0.70
2019-02-04T18:23:24.015Z,0.70
2019-02-04T18:28:24.234Z,0.70
2019-02-04T18:33:25.266Z,0.70
2019-02-04T18:35:55.671Z,0.70
2019-02-04T18:38:26.402Z,0.70
2019-02-04T18:40:57.095Z,0.70
2019-02-04T18:43:27.548Z,0.70
2019-02-04T18:46:00.369Z,0.70
2019-02-04T18:48:33.826Z,0.70
2019-02-04T18:51:05.832Z,0.70
2019-02-04T18:56:10.867Z,0.70
2019-02-04T18:58:43.362Z,0.70
2019-02-04T19:03:48.282Z,0.70
2019-02-04T19:06:21.632Z,0.70
2019-02-04T19:08:53.267Z,0.70
2019-02-04T19:11:23.686Z,0.70
2019-02-04T19:16:24.179Z,0.60
2019-02-04T19:18:54.555Z,0.60
2019-02-04T19:21:25.267Z,0.50
2019-02-04T19:23:55.670Z,0.50
2019-02-04T19:26:26.088Z,0.50
2019-02-04T19:28:56.536Z,0.50
2019-02-04T19:31:31.351Z,0.50
2019-02-04T19:34:01.701Z,0.50
2019-02-04T19:39:06.515Z,0.40
2019-02-04T19:41:36.927Z,0.30
2019-02-04T19:44:07.458Z,0.30
2019-02-04T19:46:39.030Z,0.30
2019-02-04T19:49:09.379Z,0.20
2019-02-04T19:51:39.811Z,0.20
2019-02-04T19:54:20.979Z,0.20
2019-02-04T19:56:42.456Z,0.30
2019-02-04T19:59:12.885Z,0.30
2019-02-04T20:01:45.269Z,0.30
2019-02-04T20:07:05.633Z,0.30
2019-02-04T20:09:36.064Z,0.30
2019-02-04T20:17:08.816Z,0.30
2019-02-04T20:22:08.979Z,0.20
2019-02-04T20:24:39.696Z,0.20
2019-02-04T20:27:10.152Z,0.00
2019-02-04T20:29:40.605Z,-0.10
2019-02-04T20:32:11.060Z,-0.10
2019-02-04T20:39:42.893Z,-0.10
2019-02-04T20:42:13.612Z,-0.10
2019-02-04T20:44:44.406Z,-0.20
2019-02-04T20:47:16.293Z,-0.30
2019-02-04T20:49:49.299Z,-0.30
2019-02-04T20:54:52.114Z,-0.60
2019-02-04T20:57:22.607Z,-0.80
2019-02-04T20:59:53.135Z,-0.90
2019-02-04T21:02:23.792Z,-1.00
2019-02-04T21:04:56.779Z,-1.10
2019-02-04T21:07:38.452Z,-1.20
2019-02-04T21:10:11.535Z,-1.30
2019-02-04T21:12:41.959Z,-1.40
2019-02-04T21:17:47.864Z,-1.40
2019-02-04T21:20:20.115Z,-1.50
2019-02-04T21:22:50.891Z,-1.50
2019-02-04T21:25:21.456Z,-1.50
2019-02-04T21:27:52.272Z,-1.50
2019-02-04T21:30:25.995Z,-1.50
2019-02-04T21:32:56.648Z,-1.60
2019-02-04T21:35:27.507Z,-1.60
2019-02-04T21:37:57.931Z,-1.70
2019-02-04T21:40:28.767Z,-1.70
2019-02-04T21:42:59.192Z,-1.80
2019-02-04T21:45:29.937Z,-1.80
2019-02-04T21:48:00.352Z,-1.80
2019-02-04T21:50:31.115Z,-1.90
2019-02-04T21:53:01.552Z,-1.80
2019-02-04T21:55:32.719Z,-1.80
2019-02-04T21:58:03.512Z,-1.80
2019-02-04T22:00:38.791Z,-1.80
2019-02-04T22:03:09.405Z,-1.70
2019-02-04T22:05:39.868Z,-1.70
2019-02-04T22:08:10.295Z,-1.70
2019-02-04T22:10:41.380Z,-1.60
2019-02-04T22:15:43.372Z,-1.50
2019-02-04T22:18:14.432Z,-1.50
2019-02-04T22:20:45.557Z,-1.50
2019-02-04T22:23:15.963Z,-1.50
2019-02-04T22:25:46.791Z,-1.40
2019-02-04T22:28:17.211Z,-1.50
2019-02-04T22:30:48.007Z,-1.50
2019-02-04T22:33:18.423Z,-1.50
2019-02-04T22:35:49.276Z,-1.50
2019-02-04T22:40:49.413Z,-1.50
2019-02-04T22:43:20.344Z,-1.50
2019-02-04T22:45:51.578Z,-1.50
2019-02-04T22:48:22.827Z,-1.60
2019-02-04T22:50:53.248Z,-1.60
2019-02-04T22:53:23.587Z,-1.70
2019-02-04T22:55:53.927Z,-1.80
2019-02-04T22:58:24.383Z,-1.80
2019-02-04T23:03:47.045Z,-1.90
2019-02-04T23:06:19.150Z,-2.00
2019-02-04T23:08:49.611Z,-2.10
2019-02-04T23:11:20.371Z,-2.20
2019-02-04T23:13:50.827Z,-2.20
2019-02-04T23:16:21.435Z,-2.30
2019-02-04T23:18:51.890Z,-2.30
2019-02-04T23:21:22.643Z,-2.40
2019-02-04T23:23:53.507Z,-2.40
2019-02-04T23:26:23.995Z,-2.50
2019-02-04T23:28:56.803Z,-2.50
2019-02-04T23:33:59.567Z,-2.60
2019-02-04T23:36:30.291Z,-2.60
2019-02-04T23:39:00.811Z,-2.60
2019-02-04T23:41:31.518Z,-2.60
2019-02-04T23:44:02.336Z,-2.60
2019-02-04T23:46:32.766Z,-2.60
2019-02-04T23:49:03.211Z,-2.70
2019-02-04T23:51:33.705Z,-2.70
2019-02-04T23:54:04.598Z,-2.70
2019-02-04T23:56:35.227Z,-2.70
2019-02-04T23:59:06.171Z,-2.70
